createdAt,value
2023-02-12T00:01:28.930Z,66.35
2023-02-12T00:03:58.081Z,67.01
2023-02-12T00:06:27.238Z,66.94
2023-02-12T00:08:56.588Z,67.03
2023-02-12T00:11:27.618Z,66.55
2023-02-12T00:13:57.146Z,66.47
2023-02-12T00:16:28.885Z,66.39
2023-02-12T00:18:58.548Z,66.44
2023-02-12T00:21:27.493Z,66.82
2023-02-12T00:23:56.199Z,66.98
2023-02-12T00:26:25.021Z,66.95
2023-02-12T00:28:53.496Z,67.33
2023-02-12T00:31:25.790Z,66.93
2023-02-12T00:33:59.280Z,66.97
2023-02-12T00:36:29.678Z,66.96
2023-02-12T00:38:59.728Z,67.15
2023-02-12T00:41:28.043Z,67.19
2023-02-12T00:43:56.514Z,66.88
2023-02-12T00:46:24.851Z,66.97
2023-02-12T00:48:53.240Z,67.48
2023-02-12T00:51:21.761Z,67.87
2023-02-12T00:53:50.066Z,67.51
2023-02-12T00:56:18.244Z,67.62
2023-02-12T00:58:49.008Z,67.73
2023-02-12T01:01:17.575Z,67.53
2023-02-12T01:03:45.774Z,67.76
2023-02-12T01:06:14.121Z,67.61
2023-02-12T01:08:42.204Z,67.31
2023-02-12T01:11:13.377Z,67.53
2023-02-12T01:13:41.466Z,67.49
2023-02-12T01:16:16.212Z,67.68
2023-02-12T01:18:45.163Z,68.08
2023-02-12T01:21:35.136Z,67.95
2023-02-12T01:24:03.673Z,67.75
2023-02-12T01:26:33.193Z,67.96
2023-02-12T01:29:04.042Z,67.90
2023-02-12T01:31:37.499Z,67.51
2023-02-12T01:34:07.448Z,67.68
2023-02-12T01:36:36.028Z,67.77
2023-02-12T01:39:06.227Z,68.37
2023-02-12T01:41:40.087Z,68.71
2023-02-12T01:44:23.642Z,68.86
2023-02-12T01:47:06.090Z,68.36
2023-02-12T01:49:38.982Z,68.35
2023-02-12T01:52:20.379Z,67.98
2023-02-12T01:54:50.501Z,68.11
2023-02-12T01:57:20.021Z,68.54
2023-02-12T01:59:51.680Z,68.80
2023-02-12T02:02:20.066Z,68.67
2023-02-12T02:04:54.288Z,68.33
2023-02-12T02:07:22.449Z,68.54
2023-02-12T02:09:51.645Z,68.34
2023-02-12T02:12:38.874Z,68.44
2023-02-12T02:15:09.035Z,68.96
2023-02-12T02:17:56.490Z,69.18
2023-02-12T02:20:49.622Z,69.77
2023-02-12T02:23:23.653Z,69.93
2023-02-12T02:26:11.997Z,70.36
2023-02-12T02:28:59.144Z,69.74
2023-02-12T02:31:32.488Z,69.90
2023-02-12T02:34:12.627Z,69.48
2023-02-12T02:37:00.185Z,68.99
2023-02-12T02:40:01.734Z,69.09
2023-02-12T02:42:36.893Z,69.39
2023-02-12T02:45:12.755Z,69.83
2023-02-12T02:47:55.753Z,69.59
2023-02-12T02:50:27.816Z,69.37
2023-02-12T02:53:13.530Z,69.41
2023-02-12T02:55:49.783Z,69.55
2023-02-12T02:58:24.252Z,69.41
2023-02-12T03:01:07.646Z,69.82
2023-02-12T03:03:53.207Z,70.22
2023-02-12T03:06:27.567Z,70.73
2023-02-12T03:09:00.540Z,70.52
2023-02-12T03:11:31.785Z,70.59
2023-02-12T03:14:10.212Z,70.89
2023-02-12T03:16:50.437Z,70.49
2023-02-12T03:19:22.986Z,70.26
2023-02-12T03:21:57.926Z,69.95
2023-02-12T03:24:45.120Z,69.60
2023-02-12T03:27:41.516Z,69.63
2023-02-12T03:30:10.418Z,69.56
2023-02-12T03:33:21.294Z,69.97
2023-02-12T03:36:01.969Z,70.42
2023-02-12T03:38:33.527Z,70.74
2023-02-12T03:41:14.276Z,71.02
2023-02-12T03:43:52.766Z,71.16
2023-02-12T03:46:34.347Z,71.22
2023-02-12T03:49:11.588Z,71.60
2023-02-12T03:51:42.507Z,71.63
2023-02-12T03:54:15.815Z,71.66
2023-02-12T03:56:52.329Z,71.75
2023-02-12T03:59:22.273Z,71.87
2023-02-12T04:01:53.792Z,72.01
2023-02-12T04:04:24.804Z,71.64
2023-02-12T04:06:54.640Z,71.59
2023-02-12T04:09:25.661Z,71.92
2023-02-12T04:11:56.433Z,71.43
2023-02-12T04:14:50.344Z,70.58
2023-02-12T04:17:30.827Z,70.02
2023-02-12T04:20:17.746Z,69.29
2023-02-12T04:23:20.692Z,69.20
2023-02-12T04:26:10.872Z,69.92
2023-02-12T04:29:02.118Z,70.29
2023-02-12T04:31:43.550Z,70.51
2023-02-12T04:34:26.855Z,71.03
2023-02-12T04:37:19.678Z,71.33
2023-02-12T04:39:49.783Z,71.46
2023-02-12T04:42:17.906Z,71.47
2023-02-12T04:44:46.935Z,71.64
2023-02-12T04:47:17.171Z,71.50
2023-02-12T04:49:45.358Z,71.35
2023-02-12T04:52:13.692Z,71.80
2023-02-12T04:54:41.905Z,72.16
2023-02-12T04:57:10.146Z,72.22
2023-02-12T04:59:38.365Z,72.32
2023-02-12T05:02:06.580Z,72.22
2023-02-12T05:04:34.911Z,72.20
2023-02-12T05:07:03.113Z,72.09
2023-02-12T05:09:31.577Z,71.95
2023-02-12T05:12:00.040Z,71.70
2023-02-12T05:14:28.155Z,71.63
2023-02-12T05:16:56.305Z,71.62
2023-02-12T05:19:24.459Z,71.78
2023-02-12T05:21:52.723Z,71.85
2023-02-12T05:24:20.872Z,72.01
2023-02-12T05:26:49.710Z,72.40
2023-02-12T05:29:18.396Z,72.63
2023-02-12T05:31:46.773Z,72.65
2023-02-12T05:34:15.230Z,72.50
2023-02-12T05:36:43.372Z,72.69
2023-02-12T05:39:11.620Z,72.60
2023-02-12T05:41:39.816Z,72.78
2023-02-12T05:44:08.146Z,72.84
2023-02-12T05:46:36.245Z,72.78
2023-02-12T05:49:04.768Z,73.34
2023-02-12T05:51:33.148Z,73.69
2023-02-12T05:54:04.534Z,73.55
2023-02-12T05:56:36.262Z,73.46
2023-02-12T05:59:07.203Z,73.16
2023-02-12T06:01:39.278Z,72.92
2023-02-12T06:04:13.863Z,72.66
2023-02-12T06:06:42.788Z,72.62
2023-02-12T06:09:13.308Z,72.75
2023-02-12T06:11:41.951Z,73.06
2023-02-12T06:14:14.134Z,73.75
2023-02-12T06:16:45.844Z,73.97
2023-02-12T06:19:14.496Z,73.68
2023-02-12T06:21:43.189Z,73.77
2023-02-12T06:24:13.694Z,73.46
2023-02-12T06:26:42.359Z,73.93
2023-02-12T06:29:11.379Z,73.97
2023-02-12T06:31:39.871Z,73.70
2023-02-12T06:34:11.314Z,73.89
2023-02-12T06:36:42.185Z,74.20
2023-02-12T06:39:11.583Z,74.34
2023-02-12T06:41:40.002Z,74.15
2023-02-12T06:44:08.571Z,74.28
2023-02-12T06:46:36.717Z,74.21
2023-02-12T06:49:04.889Z,74.20
2023-02-12T06:51:32.993Z,74.10
2023-02-12T06:54:01.042Z,73.74
2023-02-12T06:56:29.235Z,73.37
2023-02-12T06:59:01.252Z,73.48
2023-02-12T07:01:30.899Z,73.52
2023-02-12T07:04:03.132Z,73.43
2023-02-12T07:06:33.905Z,73.44
2023-02-12T07:09:04.035Z,73.56
2023-02-12T07:11:37.794Z,73.55
2023-02-12T07:14:07.610Z,73.53
2023-02-12T07:16:35.863Z,73.56
2023-02-12T07:19:04.027Z,73.31
2023-02-12T07:21:32.517Z,72.92
2023-02-12T07:24:00.729Z,72.60
2023-02-12T07:26:29.162Z,72.28
2023-02-12T07:28:59.106Z,71.57
2023-02-12T07:31:27.401Z,71.39
2023-02-12T07:33:57.754Z,71.07
2023-02-12T07:36:28.225Z,70.68
2023-02-12T07:38:57.247Z,69.99
2023-02-12T07:41:34.576Z,69.66
2023-02-12T07:44:10.340Z,69.27
2023-02-12T07:46:42.415Z,68.24
2023-02-12T07:49:19.661Z,68.22
2023-02-12T07:51:49.753Z,67.59
2023-02-12T07:54:18.153Z,66.95
2023-02-12T07:56:49.466Z,66.63
2023-02-12T07:59:19.888Z,66.71
2023-02-12T08:01:52.254Z,65.72
2023-02-12T08:04:24.127Z,65.91
2023-02-12T08:06:54.566Z,66.02
2023-02-12T08:09:28.529Z,65.74
2023-02-12T08:11:56.781Z,65.90
2023-02-12T08:14:26.773Z,65.40
2023-02-12T08:16:55.057Z,64.83
2023-02-12T08:19:26.436Z,65.08
2023-02-12T08:21:56.497Z,64.92
2023-02-12T08:24:25.812Z,64.70
2023-02-12T08:26:54.208Z,64.28
2023-02-12T08:29:28.803Z,63.41
2023-02-12T08:32:02.594Z,63.93
2023-02-12T08:34:36.052Z,63.02
2023-02-12T08:37:06.086Z,62.43
2023-02-12T08:39:34.692Z,62.63
2023-02-12T08:42:02.990Z,62.84
2023-02-12T08:44:31.349Z,61.15
2023-02-12T08:46:59.483Z,61.40
2023-02-12T08:49:30.016Z,60.01
2023-02-12T08:51:59.982Z,59.11
2023-02-12T08:54:29.982Z,58.85
2023-02-12T08:57:00.438Z,59.51
2023-02-12T08:59:28.867Z,59.50
2023-02-12T09:01:57.108Z,59.54
2023-02-12T09:04:27.142Z,59.48
2023-02-12T09:06:56.098Z,56.40
2023-02-12T09:09:24.429Z,52.33
2023-02-12T09:11:52.648Z,51.42
2023-02-12T09:14:24.421Z,47.66
2023-02-12T09:16:54.760Z,45.73
2023-02-12T09:19:23.402Z,45.18
2023-02-12T09:21:56.781Z,43.19
2023-02-12T09:24:27.841Z,39.59
2023-02-12T09:26:57.058Z,37.69
2023-02-12T09:29:25.305Z,35.87
2023-02-12T09:31:53.728Z,35.75
2023-02-12T09:34:22.173Z,33.73
2023-02-12T09:36:50.488Z,31.78
2023-02-12T09:39:18.615Z,29.59
2023-02-12T09:42:21.970Z,28.60
2023-02-12T09:45:06.746Z,26.29
2023-02-12T09:47:53.316Z,25.54
2023-02-12T09:50:46.424Z,24.51
2023-02-12T09:53:21.632Z,23.82
2023-02-12T09:55:49.901Z,23.01
2023-02-12T09:58:34.364Z,23.83
2023-02-12T10:01:14.161Z,25.54
2023-02-12T10:03:44.016Z,26.07
2023-02-12T10:06:20.025Z,25.99
2023-02-12T10:09:24.160Z,25.64
2023-02-12T10:12:04.594Z,24.65
2023-02-12T10:14:57.902Z,24.25
2023-02-12T10:18:12.297Z,23.60
2023-02-12T10:21:18.884Z,22.54
2023-02-12T10:24:19.223Z,22.59
2023-02-12T10:26:50.020Z,22.38
2023-02-12T10:29:25.064Z,22.01
2023-02-12T10:32:31.858Z,21.30
2023-02-12T10:35:00.388Z,21.11
2023-02-12T10:37:38.632Z,20.85
2023-02-12T10:40:16.224Z,20.92
2023-02-12T10:42:52.544Z,20.20
2023-02-12T10:45:25.381Z,19.53
2023-02-12T10:48:04.129Z,19.18
2023-02-12T10:50:45.111Z,18.76
2023-02-12T10:53:25.280Z,18.85
2023-02-12T10:56:26.259Z,18.45
2023-02-12T10:58:59.492Z,18.87
2023-02-12T11:01:39.207Z,20.45
2023-02-12T11:04:40.385Z,21.76
2023-02-12T11:07:12.265Z,23.52
2023-02-12T11:09:46.668Z,23.82
2023-02-12T11:12:24.039Z,23.84
2023-02-12T11:14:55.191Z,23.51
2023-02-12T11:17:45.488Z,24.38
2023-02-12T11:20:16.992Z,25.61
2023-02-12T11:22:55.699Z,25.92
2023-02-12T11:25:26.646Z,26.79
2023-02-12T11:28:18.539Z,27.18
2023-02-12T11:31:04.938Z,26.74
2023-02-12T11:33:38.028Z,27.55
2023-02-12T11:36:18.429Z,27.97
2023-02-12T11:38:55.710Z,28.12
2023-02-12T11:41:37.382Z,28.62
2023-02-12T11:44:11.477Z,28.23
2023-02-12T11:46:41.115Z,30.12
2023-02-12T11:49:39.475Z,30.34
2023-02-12T11:52:15.562Z,30.41
2023-02-12T11:54:49.208Z,29.97
2023-02-12T11:57:59.334Z,29.92
2023-02-12T12:00:37.383Z,30.81
2023-02-12T12:03:15.381Z,32.44
2023-02-12T12:05:51.035Z,33.24
2023-02-12T12:08:30.240Z,34.45
2023-02-12T12:11:08.134Z,34.86
2023-02-12T12:13:43.308Z,35.42
2023-02-12T12:16:41.284Z,36.67
2023-02-12T12:19:52.516Z,37.79
2023-02-12T12:22:30.827Z,38.09
2023-02-12T12:25:02.604Z,38.19
2023-02-12T12:28:05.501Z,39.23
2023-02-12T12:30:58.506Z,40.09
2023-02-12T12:33:30.965Z,40.26
2023-02-12T12:36:21.847Z,40.35
2023-02-12T12:39:01.860Z,40.15
2023-02-12T12:41:42.316Z,40.85
2023-02-12T12:44:25.432Z,41.17
2023-02-12T12:47:12.089Z,41.60
2023-02-12T12:50:12.618Z,42.13
2023-02-12T12:53:02.858Z,42.72
2023-02-12T12:56:12.143Z,43.30
2023-02-12T12:59:15.637Z,43.75
2023-02-12T13:01:58.832Z,44.44
2023-02-12T13:04:39.273Z,43.85
2023-02-12T13:07:29.141Z,43.75
2023-02-12T13:10:17.482Z,43.33
2023-02-12T13:12:55.593Z,43.08
2023-02-12T13:15:32.923Z,43.23
2023-02-12T13:18:30.255Z,44.10
2023-02-12T13:21:25.004Z,44.90
2023-02-12T13:24:08.370Z,45.29
2023-02-12T13:26:59.747Z,45.82
2023-02-12T13:29:58.773Z,46.97
2023-02-12T13:32:32.780Z,47.62
2023-02-12T13:35:05.124Z,48.09
2023-02-12T13:37:37.031Z,48.67
2023-02-12T13:40:14.049Z,49.30
2023-02-12T13:43:00.333Z,49.70
2023-02-12T13:45:43.852Z,50.28
2023-02-12T13:48:29.431Z,50.55
2023-02-12T13:51:31.615Z,50.53
2023-02-12T13:54:27.821Z,50.90
2023-02-12T13:57:01.786Z,50.37
2023-02-12T13:59:33.074Z,50.25
2023-02-12T14:02:33.900Z,50.22
2023-02-12T14:05:19.012Z,50.24
2023-02-12T14:07:54.897Z,50.35
2023-02-12T14:10:30.630Z,50.78
2023-02-12T14:13:19.932Z,50.71
2023-02-12T14:15:54.478Z,51.11
2023-02-12T14:18:26.768Z,51.00
2023-02-12T14:21:13.466Z,51.14
2023-02-12T14:23:46.392Z,51.39
2023-02-12T14:26:19.470Z,51.52
2023-02-12T14:28:53.635Z,52.25
2023-02-12T14:31:27.919Z,53.19
2023-02-12T14:34:05.524Z,53.83
2023-02-12T14:36:33.851Z,53.16
2023-02-12T14:39:04.603Z,53.47
2023-02-12T14:41:38.023Z,53.51
2023-02-12T14:44:18.560Z,53.45
2023-02-12T14:46:51.370Z,54.11
2023-02-12T14:49:44.280Z,53.76
2023-02-12T14:52:16.104Z,53.77
2023-02-12T14:54:56.390Z,53.58
2023-02-12T14:57:35.786Z,54.16
2023-02-12T15:00:28.540Z,54.83
2023-02-12T15:03:12.194Z,55.86
2023-02-12T15:05:56.137Z,55.98
2023-02-12T15:08:27.557Z,56.85
2023-02-12T15:11:04.442Z,56.70
2023-02-12T15:13:44.452Z,57.82
2023-02-12T15:16:44.865Z,57.59
2023-02-12T15:19:41.715Z,57.99
2023-02-12T15:22:36.694Z,58.42
2023-02-12T15:25:20.252Z,59.20
2023-02-12T15:27:50.097Z,59.86
2023-02-12T15:30:26.321Z,59.51
2023-02-12T15:33:09.315Z,60.13
2023-02-12T15:35:44.401Z,60.52
2023-02-12T15:38:22.410Z,60.74
2023-02-12T15:40:56.347Z,60.67
2023-02-12T15:43:30.404Z,61.30
2023-02-12T15:45:58.562Z,61.79
2023-02-12T15:48:33.196Z,62.11
2023-02-12T15:51:04.442Z,62.03
2023-02-12T15:53:33.730Z,62.91
2023-02-12T15:56:03.168Z,63.22
2023-02-12T15:58:39.396Z,64.23
2023-02-12T16:01:08.236Z,64.42
2023-02-12T16:03:39.372Z,64.62
2023-02-12T16:06:14.129Z,64.82
2023-02-12T16:08:46.261Z,64.83
2023-02-12T16:11:20.043Z,65.06
2023-02-12T16:13:52.668Z,65.69
2023-02-12T16:16:27.248Z,65.34
2023-02-12T16:19:20.111Z,66.23
2023-02-12T16:21:53.120Z,66.56
2023-02-12T16:24:32.150Z,66.78
2023-02-12T16:27:09.120Z,67.46
2023-02-12T16:29:44.864Z,67.39
2023-02-12T16:32:35.765Z,67.84
2023-02-12T16:35:24.380Z,67.53
2023-02-12T16:38:31.696Z,67.78
2023-02-12T16:41:33.218Z,67.60
2023-02-12T16:44:01.312Z,68.05
2023-02-12T16:46:43.910Z,68.00
2023-02-12T16:49:17.755Z,68.11
2023-02-12T16:51:47.902Z,68.04
2023-02-12T16:54:31.725Z,67.99
2023-02-12T16:57:01.318Z,68.64
2023-02-12T16:59:30.181Z,68.80
2023-02-12T17:01:59.650Z,69.15
2023-02-12T17:04:28.262Z,69.28
2023-02-12T17:06:58.163Z,69.78
2023-02-12T17:09:26.612Z,69.61
2023-02-12T17:11:56.180Z,69.76
2023-02-12T17:14:24.332Z,69.41
2023-02-12T17:16:52.659Z,69.38
2023-02-12T17:19:22.043Z,69.58
2023-02-12T17:21:52.113Z,69.76
2023-02-12T17:24:24.621Z,69.73
2023-02-12T17:26:54.221Z,69.52
2023-02-12T17:29:24.431Z,69.67
2023-02-12T17:31:54.117Z,70.52
2023-02-12T17:34:23.955Z,70.97
2023-02-12T17:36:53.280Z,71.34
2023-02-12T17:39:21.583Z,71.05
2023-02-12T17:41:50.087Z,70.65
2023-02-12T17:44:18.259Z,70.48
2023-02-12T17:46:46.536Z,71.26
2023-02-12T17:49:15.058Z,71.46
2023-02-12T17:51:43.314Z,72.18
2023-02-12T17:54:12.408Z,72.72
2023-02-12T17:56:40.695Z,73.08
2023-02-12T17:59:10.503Z,73.01
2023-02-12T18:01:39.908Z,72.76
2023-02-12T18:04:08.402Z,72.94
2023-02-12T18:06:36.584Z,72.82
2023-02-12T18:09:04.968Z,72.75
2023-02-12T18:11:33.537Z,72.40
2023-02-12T18:14:02.470Z,71.97
2023-02-12T18:16:33.676Z,71.83
2023-02-12T18:19:04.601Z,71.85
2023-02-12T18:21:35.135Z,72.20
2023-02-12T18:24:03.575Z,72.80
2023-02-12T18:26:32.535Z,72.50
2023-02-12T18:29:01.537Z,72.31
2023-02-12T18:31:30.095Z,72.09
2023-02-12T18:33:58.599Z,71.71
2023-02-12T18:36:26.939Z,72.14
2023-02-12T18:38:55.239Z,72.23
2023-02-12T18:41:26.458Z,72.52
2023-02-12T18:43:56.882Z,72.07
2023-02-12T18:46:28.023Z,72.58
2023-02-12T18:48:57.004Z,73.46
2023-02-12T18:51:28.175Z,73.63
2023-02-12T18:54:01.768Z,73.04
2023-02-12T18:56:33.211Z,73.59
2023-02-12T18:59:05.421Z,73.74
2023-02-12T19:01:35.303Z,73.00
2023-02-12T19:04:05.862Z,73.42
2023-02-12T19:06:40.680Z,73.58
2023-02-12T19:09:10.059Z,73.55
2023-02-12T19:11:38.318Z,73.34
2023-02-12T19:14:07.121Z,74.03
2023-02-12T19:16:35.771Z,74.07
2023-02-12T19:19:04.076Z,74.27
2023-02-12T19:21:32.499Z,73.17
2023-02-12T19:24:03.026Z,73.63
2023-02-12T19:26:33.509Z,73.61
2023-02-12T19:29:02.202Z,74.33
2023-02-12T19:31:36.494Z,74.26
2023-02-12T19:34:08.520Z,75.47
2023-02-12T19:36:37.369Z,75.29
2023-02-12T19:39:06.270Z,75.95
2023-02-12T19:41:41.471Z,76.67
2023-02-12T19:44:12.935Z,77.07
2023-02-12T19:46:42.092Z,76.32
2023-02-12T19:49:19.496Z,76.46
2023-02-12T19:51:48.107Z,76.10
2023-02-12T19:54:18.117Z,76.61
2023-02-12T19:56:47.052Z,75.59
2023-02-12T19:59:17.677Z,75.48
2023-02-12T20:01:48.258Z,74.90
2023-02-12T20:04:19.806Z,74.68
2023-02-12T20:06:52.755Z,74.74
2023-02-12T20:09:22.530Z,75.18
2023-02-12T20:11:51.685Z,75.42
2023-02-12T20:14:22.926Z,75.60
2023-02-12T20:16:54.927Z,76.39
2023-02-12T20:19:26.281Z,76.69
2023-02-12T20:21:56.894Z,77.10
2023-02-12T20:24:30.713Z,77.49
2023-02-12T20:26:59.964Z,77.54
2023-02-12T20:29:29.107Z,76.87
2023-02-12T20:31:57.529Z,77.05
2023-02-12T20:34:25.953Z,77.36
2023-02-12T20:36:54.368Z,77.34
2023-02-12T20:39:23.024Z,76.50
2023-02-12T20:41:51.529Z,76.30
2023-02-12T20:44:21.769Z,76.02
2023-02-12T20:46:55.668Z,75.65
2023-02-12T20:49:26.187Z,75.05
2023-02-12T20:51:54.903Z,76.59
2023-02-12T20:54:23.232Z,76.71
2023-02-12T20:56:51.632Z,76.63
2023-02-12T20:59:20.784Z,76.57
2023-02-12T21:01:49.294Z,77.15
2023-02-12T21:04:19.722Z,77.25
2023-02-12T21:06:48.754Z,77.51
2023-02-12T21:09:18.879Z,76.49
2023-02-12T21:11:48.078Z,76.64
2023-02-12T21:14:24.797Z,76.53
2023-02-12T21:16:55.489Z,75.83
2023-02-12T21:19:25.175Z,75.50
2023-02-12T21:21:53.816Z,76.22
2023-02-12T21:24:25.039Z,76.63
2023-02-12T21:26:54.943Z,76.84
2023-02-12T21:29:23.581Z,76.54
2023-02-12T21:31:52.196Z,76.12
2023-02-12T21:34:23.245Z,75.58
2023-02-12T21:36:54.666Z,75.97
2023-02-12T21:39:27.456Z,76.28
2023-02-12T21:42:05.171Z,76.47
2023-02-12T21:44:35.720Z,76.92
2023-02-12T21:47:04.830Z,76.33
2023-02-12T21:49:33.220Z,75.17
2023-02-12T21:52:03.980Z,75.19
2023-02-12T21:54:32.620Z,75.63
2023-02-12T21:57:01.126Z,75.64
2023-02-12T21:59:31.973Z,77.03
2023-02-12T22:02:01.811Z,76.32
2023-02-12T22:04:30.300Z,76.83
2023-02-12T22:07:03.057Z,76.60
2023-02-12T22:09:32.122Z,75.04
2023-02-12T22:12:00.381Z,73.90
2023-02-12T22:14:28.496Z,74.33
2023-02-12T22:16:56.616Z,75.80
2023-02-12T22:19:24.769Z,75.27
2023-02-12T22:21:52.833Z,74.58
2023-02-12T22:24:21.591Z,74.28
2023-02-12T22:26:49.806Z,74.95
2023-02-12T22:29:18.477Z,75.70
2023-02-12T22:31:47.817Z,75.51
2023-02-12T22:34:19.103Z,76.18
2023-02-12T22:36:48.192Z,76.60
2023-02-12T22:39:17.750Z,77.24
2023-02-12T22:41:46.296Z,77.59
2023-02-12T22:44:16.195Z,78.11
2023-02-12T22:46:44.828Z,77.92
2023-02-12T22:49:13.731Z,77.04
2023-02-12T22:51:42.375Z,77.07
2023-02-12T22:54:16.401Z,76.28
2023-02-12T22:56:45.906Z,75.82
2023-02-12T22:59:14.112Z,76.29
2023-02-12T23:01:42.357Z,76.74
2023-02-12T23:04:18.680Z,75.50
2023-02-12T23:06:47.395Z,74.69
2023-02-12T23:09:19.291Z,74.66
2023-02-12T23:11:48.504Z,73.67
2023-02-12T23:14:17.376Z,73.08
2023-02-12T23:16:46.039Z,73.09
2023-02-12T23:19:15.074Z,72.95
2023-02-12T23:21:43.645Z,73.23
2023-02-12T23:24:15.255Z,73.31
2023-02-12T23:26:43.526Z,73.20
2023-02-12T23:29:12.247Z,73.13
2023-02-12T23:31:40.362Z,73.01
2023-02-12T23:34:08.779Z,72.64
2023-02-12T23:36:37.019Z,73.02
2023-02-12T23:39:06.079Z,73.61
2023-02-12T23:41:34.588Z,74.41
2023-02-12T23:44:03.170Z,74.72
2023-02-12T23:46:31.750Z,74.81
2023-02-12T23:48:59.820Z,74.24
2023-02-12T23:51:27.875Z,74.32
2023-02-12T23:53:55.990Z,74.40
2023-02-12T23:56:24.401Z,74.88
2023-02-12T23:58:52.626Z,74.76
